Time;durP1;ratioP1;P1;durP2;ratioP2;P2;SDS_P1;SDS_P2;PMS_P1;PMS_P2;Temp;Humidity;BMP_temperature;BMP_pressure;BME280_temperature;BME280_humidity;BME280_pressure;Samples;Min_cycle;Max_cycle;Signal;HPM_P1;HPM_P2
2023/09/07 00:01:52;;;;;;;6.72;6.00;;;19.60;99.90;;;;;;4999331;28;20537;-84
2023/09/07 00:04:18;;;;;;;9.18;6.03;;;19.60;99.90;;;;;;5007167;28;20520;-83
2023/09/07 00:06:44;;;;;;;7.47;6.00;;;19.50;99.90;;;;;;5011965;28;20048;-84
2023/09/07 00:09:11;;;;;;;6.55;5.95;;;19.50;99.90;;;;;;5000684;28;20045;-83
2023/09/07 00:11:38;;;;;;;6.70;6.10;;;19.50;99.90;;;;;;5007169;28;20029;-83
2023/09/07 00:14:03;;;;;;;6.93;6.32;;;19.40;99.90;;;;;;5018397;28;20517;-83
2023/09/07 00:16:35;;;;;;;7.03;6.10;;;19.50;99.90;;;;;;4995135;28;20054;-83
2023/09/07 00:19:02;;;;;;;7.22;6.00;;;19.50;99.90;;;;;;5018290;28;20053;-83
2023/09/07 00:21:28;;;;;;;7.75;5.60;;;19.50;99.90;;;;;;5017938;28;20509;-84
2023/09/07 00:23:54;;;;;;;7.18;5.70;;;19.50;99.90;;;;;;4995399;28;20041;-83
2023/09/07 00:26:20;;;;;;;6.05;5.45;;;19.50;99.90;;;;;;5008734;28;20053;-83
2023/09/07 00:28:46;;;;;;;7.40;5.55;;;19.50;99.90;;;;;;5006276;28;20434;-84
2023/09/07 00:31:12;;;;;;;6.97;5.50;;;19.60;99.90;;;;;;5010896;28;20128;-83
2023/09/07 00:33:38;;;;;;;6.85;6.03;;;19.50;99.90;;;;;;4987709;28;20045;-83
2023/09/07 00:36:04;;;;;;;7.30;5.95;;;19.50;99.90;;;;;;4978525;28;20038;-84
2023/09/07 00:38:30;;;;;;;7.55;5.65;;;19.40;99.90;;;;;;5005762;28;20041;-83
2023/09/07 00:40:55;;;;;;;8.27;5.75;;;19.40;99.90;;;;;;4998288;28;20049;-84
2023/09/07 00:43:21;;;;;;;8.32;6.00;;;19.40;99.90;;;;;;5005630;28;20046;-83
2023/09/07 00:45:47;;;;;;;6.65;5.45;;;19.40;99.90;;;;;;5007929;28;20076;-83
2023/09/07 00:48:16;;;;;;;6.20;5.53;;;19.40;99.90;;;;;;5006448;28;20440;-83
2023/09/07 00:50:42;;;;;;;6.88;5.57;;;19.30;99.90;;;;;;5010948;28;20042;-83
2023/09/07 00:53:10;;;;;;;7.57;5.53;;;19.30;99.90;;;;;;5003061;28;20034;-83
2023/09/07 00:55:36;;;;;;;6.57;4.85;;;19.20;99.90;;;;;;4999337;28;20054;-83
2023/09/07 00:58:04;;;;;;;6.07;5.50;;;19.10;99.90;;;;;;5002386;28;20489;-83
2023/09/07 01:00:30;;;;;;;5.90;5.28;;;19.00;99.90;;;;;;4994848;28;20033;-83
2023/09/07 01:02:56;;;;;;;5.90;5.35;;;19.00;99.90;;;;;;4992455;28;20033;-83
2023/09/07 01:05:28;;;;;;;7.95;5.20;;;19.00;99.90;;;;;;4993984;28;20125;-83
2023/09/07 01:07:58;;;;;;;7.00;5.75;;;18.90;99.90;;;;;;5016378;28;20033;-83
2023/09/07 01:10:24;;;;;;;7.55;5.03;;;18.80;99.90;;;;;;5024441;28;20100;-83
2023/09/07 01:12:50;;;;;;;6.68;5.40;;;18.80;99.90;;;;;;4973013;28;20152;-83
2023/09/07 01:15:16;;;;;;;5.88;5.13;;;18.60;99.90;;;;;;4996103;28;20042;-83
2023/09/07 01:17:42;;;;;;;6.10;5.28;;;18.60;99.90;;;;;;5009183;28;20401;-83
2023/09/07 01:20:13;;;;;;;7.40;5.68;;;18.50;99.90;;;;;;5010924;28;20389;-83
2023/09/07 01:22:39;;;;;;;6.90;5.25;;;18.50;99.90;;;;;;5002115;28;20053;-83
2023/09/07 01:25:06;;;;;;;6.63;5.65;;;18.40;99.90;;;;;;5012461;28;20528;-84
2023/09/07 01:27:33;;;;;;;5.90;5.40;;;18.30;99.90;;;;;;5001661;28;20033;-83
2023/09/07 01:29:59;;;;;;;6.10;5.55;;;18.30;99.90;;;;;;5005262;28;20033;-83
2023/09/07 01:32:26;;;;;;;6.63;6.03;;;18.20;99.90;;;;;;5006473;28;20540;-83
2023/09/07 01:34:56;;;;;;;6.32;5.68;;;18.10;99.90;;;;;;5023868;28;20436;-83
2023/09/07 01:37:21;;;;;;;7.53;6.22;;;18.10;99.90;;;;;;5010426;28;20052;-83
2023/09/07 01:39:48;;;;;;;6.28;5.68;;;18.10;99.90;;;;;;5011080;28;20050;-83
2023/09/07 01:42:14;;;;;;;6.38;5.78;;;18.00;99.90;;;;;;5012490;28;20041;-83
2023/09/07 01:44:40;;;;;;;6.63;5.82;;;17.90;99.90;;;;;;5008401;28;20663;-83
2023/09/07 01:47:06;;;;;;;6.20;5.63;;;17.90;99.90;;;;;;5025357;28;20063;-83
2023/09/07 01:49:32;;;;;;;6.65;6.05;;;17.90;99.90;;;;;;4994354;28;20077;-83
2023/09/07 01:51:57;;;;;;;8.63;6.30;;;18.00;99.90;;;;;;5009173;28;20489;-83
2023/09/07 01:54:23;;;;;;;6.82;6.15;;;17.90;99.90;;;;;;5022029;28;20046;-83
2023/09/07 01:56:49;;;;;;;6.97;6.15;;;17.90;99.90;;;;;;5005014;28;20052;-83
2023/09/07 01:59:14;;;;;;;8.18;6.22;;;17.90;99.90;;;;;;4994745;28;20056;-83
2023/09/07 02:01:40;;;;;;;7.70;6.47;;;17.80;99.90;;;;;;4997115;28;20049;-83
2023/09/07 02:04:06;;;;;;;6.45;5.85;;;17.80;99.90;;;;;;4998210;28;20124;-83
2023/09/07 02:06:32;;;;;;;7.88;6.50;;;17.70;99.90;;;;;;5013053;28;20037;-83
2023/09/07 02:08:57;;;;;;;5.90;5.05;;;17.60;99.90;;;;;;5015879;28;20448;-83
2023/09/07 02:11:23;;;;;;;5.50;5.00;;;17.60;99.90;;;;;;5015994;28;20034;-83
2023/09/07 02:13:49;;;;;;;7.70;5.60;;;17.60;99.90;;;;;;5012045;28;20397;-84
2023/09/07 02:16:15;;;;;;;8.73;6.13;;;17.50;99.90;;;;;;4992487;28;20112;-83
2023/09/07 02:18:45;;;;;;;8.13;5.88;;;17.50;99.90;;;;;;5007410;28;20084;-83
2023/09/07 02:21:11;;;;;;;8.88;5.78;;;17.40;99.90;;;;;;5016051;28;20647;-83
2023/09/07 02:23:37;;;;;;;7.07;6.38;;;17.40;99.90;;;;;;5011393;28;20042;-83
2023/09/07 02:26:04;;;;;;;6.72;5.97;;;17.50;99.90;;;;;;4990652;28;20551;-83
2023/09/07 02:28:30;;;;;;;7.30;6.15;;;17.50;99.90;;;;;;5018417;28;20046;-83
2023/09/07 02:31:03;;;;;;;8.07;6.47;;;17.50;99.90;;;;;;5024046;28;20382;-83
2023/09/07 02:33:29;;;;;;;8.55;6.43;;;17.50;99.90;;;;;;5032238;28;20558;-84
2023/09/07 02:35:54;;;;;;;9.40;6.43;;;17.40;99.90;;;;;;5030211;28;20045;-83
2023/09/07 02:38:20;;;;;;;7.55;6.20;;;17.40;99.90;;;;;;4981676;28;20041;-83
2023/09/07 02:40:46;;;;;;;8.45;6.88;;;17.40;99.90;;;;;;5028629;28;20047;-83
2023/09/07 02:43:12;;;;;;;7.53;6.70;;;17.30;99.90;;;;;;5013422;28;20470;-83
2023/09/07 02:45:38;;;;;;;7.18;6.47;;;17.30;99.90;;;;;;5024591;28;20046;-83
2023/09/07 02:48:05;;;;;;;8.20;6.43;;;17.30;99.90;;;;;;5010268;28;20095;-83
2023/09/07 02:50:35;;;;;;;8.73;7.35;;;17.20;99.90;;;;;;5014146;28;20081;-83
2023/09/07 02:53:01;;;;;;;8.75;7.22;;;17.20;99.90;;;;;;5010410;28;20064;-83
2023/09/07 02:55:28;;;;;;;7.40;6.70;;;17.20;99.90;;;;;;5000453;28;20079;-83
2023/09/07 02:57:55;;;;;;;7.03;6.40;;;17.20;99.90;;;;;;5026526;28;20108;-83
2023/09/07 03:00:21;;;;;;;8.60;6.40;;;17.20;99.90;;;;;;5033568;28;20107;-83
2023/09/07 03:02:48;;;;;;;7.35;6.65;;;17.10;99.90;;;;;;5010980;28;20041;-83
2023/09/07 03:05:15;;;;;;;9.10;7.00;;;17.10;99.90;;;;;;5016492;28;20073;-83
2023/09/07 03:07:40;;;;;;;8.13;7.32;;;17.10;99.90;;;;;;5016258;28;20045;-83
2023/09/07 03:10:06;;;;;;;7.68;6.53;;;17.10;99.90;;;;;;5016095;28;20041;-83
2023/09/07 03:12:32;;;;;;;7.43;6.38;;;17.10;99.90;;;;;;5016378;28;20171;-83
2023/09/07 03:14:58;;;;;;;6.40;5.80;;;17.00;99.90;;;;;;5016528;28;20037;-83
2023/09/07 03:17:23;;;;;;;8.52;7.03;;;17.00;99.90;;;;;;5025718;28;20037;-83
2023/09/07 03:19:49;;;;;;;7.35;6.55;;;17.00;99.90;;;;;;4998750;28;20095;-83
2023/09/07 03:22:15;;;;;;;8.82;7.25;;;17.10;99.90;;;;;;5008714;28;20145;-83
2023/09/07 03:24:41;;;;;;;8.63;7.40;;;17.10;99.90;;;;;;5012182;28;20041;-83
2023/09/07 03:27:07;;;;;;;9.63;7.55;;;17.20;99.90;;;;;;5032112;28;20048;-83
2023/09/07 03:29:35;;;;;;;10.30;8.27;;;17.20;99.90;;;;;;4983910;28;20029;-83
2023/09/07 03:32:01;;;;;;;8.88;7.93;;;17.30;99.90;;;;;;5008643;28;20092;-83
2023/09/07 03:34:27;;;;;;;8.90;7.75;;;17.30;99.90;;;;;;5029821;28;20385;-83
2023/09/07 03:36:53;;;;;;;9.02;7.45;;;17.30;99.90;;;;;;4993505;28;20305;-83
2023/09/07 03:39:21;;;;;;;9.57;8.65;;;17.40;99.90;;;;;;5016307;28;20117;-84
2023/09/07 03:41:47;;;;;;;11.23;8.45;;;17.40;99.90;;;;;;4999289;28;20049;-84
2023/09/07 03:44:13;;;;;;;10.93;8.60;;;17.40;99.90;;;;;;5014538;28;20124;-83
2023/09/07 03:46:38;;;;;;;9.15;8.15;;;17.40;99.90;;;;;;5009778;28;20550;-83
2023/09/07 03:49:04;;;;;;;8.57;7.60;;;17.40;99.90;;;;;;4982938;28;20068;-83
2023/09/07 03:51:31;;;;;;;9.60;8.23;;;17.40;99.90;;;;;;5014946;28;20132;-83
2023/09/07 03:53:57;;;;;;;9.35;8.35;;;17.40;99.90;;;;;;5026307;28;20073;-83
2023/09/07 03:56:23;;;;;;;9.93;8.52;;;17.40;99.90;;;;;;5031222;28;20445;-83
2023/09/07 03:58:49;;;;;;;9.30;8.15;;;17.50;99.90;;;;;;4994343;28;20092;-83
2023/09/07 04:01:14;;;;;;;10.73;8.68;;;17.50;99.90;;;;;;5015837;28;20045;-83
2023/09/07 04:03:41;;;;;;;9.30;8.35;;;17.50;99.90;;;;;;5010021;28;20045;-83
2023/09/07 04:06:07;;;;;;;9.25;8.38;;;17.50;99.90;;;;;;4998244;28;20033;-84
2023/09/07 04:08:33;;;;;;;9.38;8.48;;;17.40;99.90;;;;;;5003890;28;20045;-84
2023/09/07 04:11:04;;;;;;;10.38;8.60;;;17.50;99.90;;;;;;5026925;28;20116;-84
2023/09/07 04:13:29;;;;;;;11.07;8.40;;;17.40;99.90;;;;;;5031825;28;20056;-84
2023/09/07 04:15:55;;;;;;;11.25;8.98;;;17.40;99.90;;;;;;5019224;28;20795;-84
2023/09/07 04:18:21;;;;;;;8.90;8.02;;;17.40;99.90;;;;;;5006772;28;20041;-83
2023/09/07 04:20:46;;;;;;;9.65;8.65;;;17.40;99.90;;;;;;5011126;28;20048;-84
2023/09/07 04:23:12;;;;;;;10.27;8.80;;;17.40;99.90;;;;;;4995814;28;20033;-84
2023/09/07 04:25:41;;;;;;;11.07;8.80;;;17.30;99.90;;;;;;5012532;28;20068;-83
2023/09/07 04:28:06;;;;;;;9.65;8.68;;;17.30;99.90;;;;;;5028462;28;20041;-82
2023/09/07 04:30:39;;;;;;;9.48;8.60;;;17.20;99.90;;;;;;5014998;28;20051;-83
2023/09/07 04:33:05;;;;;;;11.68;8.98;;;17.20;99.90;;;;;;5014702;28;20499;-83
2023/09/07 04:35:32;;;;;;;10.88;9.05;;;17.10;99.90;;;;;;5004584;28;20038;-83
2023/09/07 04:37:58;;;;;;;13.25;9.00;;;17.10;99.90;;;;;;5022195;28;20429;-83
2023/09/07 04:40:24;;;;;;;8.95;7.97;;;17.10;99.90;;;;;;5021819;28;20034;-83
2023/09/07 04:42:51;;;;;;;10.45;9.10;;;17.10;99.90;;;;;;5028514;28;20080;-83
2023/09/07 04:45:17;;;;;;;10.52;8.98;;;17.00;99.90;;;;;;5014078;28;20064;-83
2023/09/07 04:47:43;;;;;;;10.52;9.43;;;17.00;99.90;;;;;;5013230;28;20041;-83
2023/09/07 04:50:09;;;;;;;10.20;9.23;;;16.90;99.90;;;;;;4977822;28;20045;-83
2023/09/07 04:52:36;;;;;;;10.88;8.48;;;16.80;99.90;;;;;;5022768;28;20863;-82
2023/09/07 04:55:02;;;;;;;11.27;9.13;;;16.80;99.90;;;;;;5008196;28;20126;-82
2023/09/07 04:57:29;;;;;;;9.38;8.23;;;16.70;99.90;;;;;;5009757;28;20417;-82
2023/09/07 04:59:54;;;;;;;10.02;9.00;;;16.70;99.90;;;;;;5024204;28;20037;-82
2023/09/07 05:02:20;;;;;;;8.63;7.70;;;16.60;99.90;;;;;;4998453;28;20516;-82
2023/09/07 05:04:46;;;;;;;10.40;8.73;;;16.50;99.90;;;;;;5014965;28;20041;-82
2023/09/07 05:07:12;;;;;;;10.75;8.45;;;16.50;99.90;;;;;;5030571;28;20397;-82
2023/09/07 05:09:38;;;;;;;10.07;8.50;;;16.40;99.90;;;;;;5009809;28;20033;-82
2023/09/07 05:12:03;;;;;;;10.05;9.05;;;16.40;99.90;;;;;;4997446;28;20037;-83
2023/09/07 05:14:29;;;;;;;10.57;9.48;;;16.50;99.90;;;;;;5014217;28;20041;-82
2023/09/07 05:16:56;;;;;;;10.07;8.93;;;16.50;99.90;;;;;;5008156;28;20124;-82
2023/09/07 05:19:22;;;;;;;10.23;9.05;;;16.50;99.90;;;;;;5005087;28;20084;-82
2023/09/07 05:21:48;;;;;;;11.27;8.10;;;16.50;99.90;;;;;;5013997;28;20099;-82
2023/09/07 05:24:17;;;;;;;9.00;8.07;;;16.50;99.90;;;;;;5013001;28;20037;-82
2023/09/07 05:26:43;;;;;;;9.30;8.15;;;16.50;99.90;;;;;;5012145;28;20175;-82
2023/09/07 05:29:11;;;;;;;9.63;8.63;;;16.50;99.90;;;;;;5013220;28;20124;-82
2023/09/07 05:31:36;;;;;;;10.45;8.73;;;16.50;99.90;;;;;;5029759;28;20045;-82
2023/09/07 05:34:02;;;;;;;10.43;9.13;;;16.50;99.90;;;;;;5008053;28;20038;-82
2023/09/07 05:36:29;;;;;;;10.55;9.45;;;16.60;99.90;;;;;;5014024;28;20041;-82
2023/09/07 05:38:54;;;;;;;11.63;10.02;;;16.60;99.90;;;;;;5000229;28;20489;-82
2023/09/07 05:41:20;;;;;;;11.30;9.40;;;16.70;99.90;;;;;;5013187;28;20051;-82
2023/09/07 05:43:46;;;;;;;11.23;9.20;;;16.80;99.90;;;;;;4997364;28;20045;-82
2023/09/07 05:46:11;;;;;;;19.27;9.65;;;16.80;99.90;;;;;;5029114;28;20050;-82
2023/09/07 05:48:37;;;;;;;10.77;9.68;;;16.90;99.90;;;;;;5025829;28;20042;-82
2023/09/07 05:51:03;;;;;;;11.00;9.23;;;16.90;99.90;;;;;;5018920;28;20821;-82
2023/09/07 05:53:29;;;;;;;14.10;10.38;;;17.00;99.90;;;;;;4976480;28;20173;-82
2023/09/07 05:55:54;;;;;;;11.70;10.50;;;17.10;99.90;;;;;;4991455;28;20033;-82
2023/09/07 05:58:20;;;;;;;13.30;10.13;;;17.10;99.90;;;;;;4992915;28;20129;-82
2023/09/07 06:00:46;;;;;;;13.05;10.05;;;17.20;99.90;;;;;;5032563;28;20417;-82
2023/09/07 06:03:12;;;;;;;12.00;10.68;;;17.30;99.90;;;;;;4999737;28;20038;-83
2023/09/07 06:05:39;;;;;;;11.77;10.63;;;17.30;99.90;;;;;;5016654;28;20455;-83
2023/09/07 06:08:08;;;;;;;12.60;10.23;;;17.40;99.90;;;;;;4999761;28;20049;-82
2023/09/07 06:10:34;;;;;;;11.93;10.65;;;17.50;99.90;;;;;;5032927;28;20037;-82
2023/09/07 06:12:59;;;;;;;13.85;9.85;;;17.50;99.90;;;;;;5011641;28;20041;-81
2023/09/07 06:15:26;;;;;;;11.23;10.13;;;17.60;99.90;;;;;;5006911;28;20053;-81
2023/09/07 06:17:52;;;;;;;11.50;9.80;;;17.70;99.90;;;;;;5004492;28;20124;-81
2023/09/07 06:20:19;;;;;;;12.45;9.65;;;17.70;99.90;;;;;;4987989;28;20117;-81
2023/09/07 06:22:45;;;;;;;13.75;10.73;;;17.80;99.90;;;;;;4993539;28;20477;-81
2023/09/07 06:25:11;;;;;;;14.48;11.07;;;17.80;99.90;;;;;;4988103;28;20053;-81
2023/09/07 06:27:37;;;;;;;11.73;10.13;;;17.90;99.90;;;;;;4991453;28;20048;-81
2023/09/07 06:30:07;;;;;;;11.85;10.10;;;18.00;99.90;;;;;;5005153;28;21907;-81
2023/09/07 06:32:32;;;;;;;14.18;10.70;;;18.00;99.90;;;;;;5022412;28;20045;-81
2023/09/07 06:34:58;;;;;;;12.57;10.90;;;18.10;99.90;;;;;;5003302;28;21045;-81
2023/09/07 06:37:24;;;;;;;12.98;11.02;;;18.20;99.90;;;;;;4987297;28;20061;-82
2023/09/07 06:39:50;;;;;;;13.20;10.68;;;18.20;99.90;;;;;;4990395;28;20061;-81
2023/09/07 06:42:16;;;;;;;12.45;11.15;;;18.30;99.90;;;;;;5019074;28;20099;-81
2023/09/07 06:44:42;;;;;;;12.65;11.00;;;18.40;99.90;;;;;;5000366;28;20051;-81
2023/09/07 06:47:08;;;;;;;13.25;11.25;;;18.40;99.90;;;;;;5004187;28;20195;-81
2023/09/07 06:49:34;;;;;;;13.73;11.10;;;18.50;99.90;;;;;;5001862;28;20370;-81
2023/09/07 06:52:00;;;;;;;12.30;11.00;;;18.60;99.90;;;;;;5005070;28;20477;-81
2023/09/07 06:54:30;;;;;;;12.50;10.77;;;18.60;99.90;;;;;;5017009;28;20128;-81
2023/09/07 06:56:56;;;;;;;11.60;10.40;;;18.70;99.90;;;;;;5002658;28;20135;-81
2023/09/07 06:59:22;;;;;;;11.73;10.50;;;18.80;99.90;;;;;;5004345;28;20124;-82
2023/09/07 07:01:47;;;;;;;13.35;10.48;;;18.90;99.90;;;;;;5007843;28;20120;-81
2023/09/07 07:04:13;;;;;;;13.73;10.70;;;19.00;99.90;;;;;;5006466;28;20381;-81
2023/09/07 07:06:39;;;;;;;14.88;11.00;;;19.00;99.90;;;;;;5017489;28;20033;-81
2023/09/07 07:09:05;;;;;;;11.68;10.52;;;19.10;99.90;;;;;;4987460;28;20412;-81
2023/09/07 07:11:31;;;;;;;13.20;9.57;;;19.20;99.90;;;;;;4988731;28;20049;-81
2023/09/07 07:13:57;;;;;;;13.20;10.07;;;19.30;99.90;;;;;;5018742;28;20136;-82
2023/09/07 07:16:22;;;;;;;13.38;9.85;;;19.40;99.90;;;;;;4983422;28;20485;-83
2023/09/07 07:18:48;;;;;;;10.48;9.38;;;19.50;99.90;;;;;;4984090;28;20053;-82
2023/09/07 07:21:15;;;;;;;12.95;10.05;;;19.60;99.90;;;;;;5023108;28;20037;-82
2023/09/07 07:23:41;;;;;;;9.75;8.80;;;19.70;99.90;;;;;;5020161;28;20128;-82
2023/09/07 07:26:06;;;;;;;12.30;9.73;;;19.80;99.90;;;;;;4989339;28;20124;-82
2023/09/07 07:28:32;;;;;;;10.82;9.57;;;20.00;99.90;;;;;;4985978;28;20041;-83
2023/09/07 07:30:58;;;;;;;11.45;10.27;;;20.00;99.90;;;;;;5001911;28;20128;-82
2023/09/07 07:33:24;;;;;;;10.85;9.70;;;20.10;99.90;;;;;;4974797;28;20041;-83
2023/09/07 07:35:49;;;;;;;13.77;10.45;;;20.20;99.90;;;;;;4986858;28;20082;-83
2023/09/07 07:38:15;;;;;;;11.55;10.35;;;20.30;99.90;;;;;;5003223;28;20127;-82
2023/09/07 07:40:42;;;;;;;11.80;10.35;;;20.40;99.90;;;;;;4974094;28;20030;-83
2023/09/07 07:43:09;;;;;;;11.23;10.05;;;20.40;99.90;;;;;;5002930;28;20329;-82
2023/09/07 07:45:38;;;;;;;11.40;10.20;;;20.60;99.90;;;;;;4986660;28;20076;-83
2023/09/07 07:48:07;;;;;;;11.05;10.02;;;20.60;99.90;;;;;;4987279;28;20109;-83
2023/09/07 07:50:38;;;;;;;13.73;11.30;;;20.80;99.90;;;;;;5001432;28;20436;-83
2023/09/07 07:53:03;;;;;;;11.13;10.02;;;20.90;99.90;;;;;;4998544;28;20040;-81
2023/09/07 07:55:29;;;;;;;12.43;10.10;;;21.00;99.90;;;;;;5006086;28;20041;-83
2023/09/07 07:57:55;;;;;;;11.90;10.70;;;21.10;99.90;;;;;;5001309;28;20061;-83
2023/09/07 08:00:21;;;;;;;11.52;10.35;;;21.20;99.90;;;;;;4989593;28;20069;-82
2023/09/07 08:02:47;;;;;;;12.70;10.27;;;21.30;99.90;;;;;;5001446;28;20049;-83
2023/09/07 08:05:12;;;;;;;14.90;10.43;;;21.40;99.90;;;;;;5017677;28;20061;-85
2023/09/07 08:07:38;;;;;;;13.07;9.90;;;21.50;99.90;;;;;;5002617;28;20116;-83
2023/09/07 08:10:04;;;;;;;11.95;9.77;;;21.70;99.90;;;;;;5017148;28;20132;-83
2023/09/07 08:12:30;;;;;;;10.65;9.27;;;21.80;99.90;;;;;;5018083;28;20045;-83
2023/09/07 08:14:56;;;;;;;9.07;8.23;;;21.90;99.90;;;;;;5000859;28;20041;-83
2023/09/07 08:17:23;;;;;;;10.00;8.25;;;22.00;99.90;;;;;;5002008;28;20033;-83
2023/09/07 08:19:51;;;;;;;9.68;7.93;;;22.10;99.90;;;;;;5004263;28;20099;-83
2023/09/07 08:22:16;;;;;;;8.88;7.90;;;22.30;99.90;;;;;;5001897;28;20128;-83
2023/09/07 08:24:44;;;;;;;9.27;8.30;;;22.40;99.90;;;;;;4985534;28;20144;-83
2023/09/07 08:27:11;;;;;;;8.68;7.78;;;22.50;99.90;;;;;;5004333;28;20034;-83
2023/09/07 08:29:38;;;;;;;12.38;8.20;;;22.70;99.90;;;;;;5018991;28;20383;-83
2023/09/07 08:32:04;;;;;;;10.40;7.50;;;22.80;99.90;;;;;;5019671;28;20072;-83
2023/09/07 08:34:31;;;;;;;9.32;7.57;;;22.90;99.90;;;;;;4984102;28;20180;-83
2023/09/07 08:36:58;;;;;;;10.20;7.50;;;23.00;99.90;;;;;;5001925;28;20061;-83
2023/09/07 08:39:24;;;;;;;12.85;7.70;;;23.10;99.90;;;;;;5004152;28;20050;-84
2023/09/07 08:41:51;;;;;;;8.43;7.47;;;23.20;99.90;;;;;;5016378;28;20041;-83
2023/09/07 08:44:19;;;;;;;8.93;7.30;;;23.30;99.90;;;;;;5017903;28;20435;-84
2023/09/07 08:46:45;;;;;;;9.50;7.70;;;23.40;99.90;;;;;;4998889;28;20036;-83
2023/09/07 08:49:11;;;;;;;9.50;7.55;;;23.50;99.90;;;;;;5003597;28;20072;-84
2023/09/07 08:51:38;;;;;;;8.98;7.15;;;23.50;99.90;;;;;;5020109;28;20044;-83
2023/09/07 08:54:05;;;;;;;9.27;7.00;;;23.60;99.90;;;;;;5003451;28;20065;-84
2023/09/07 08:56:32;;;;;;;9.32;7.28;;;23.80;99.90;;;;;;4985194;28;20049;-84
2023/09/07 08:58:57;;;;;;;14.57;7.25;;;23.90;99.90;;;;;;4999490;28;20041;-83
2023/09/07 09:01:23;;;;;;;9.75;7.18;;;23.90;99.90;;;;;;5000307;28;20619;-86
2023/09/07 09:03:50;;;;;;;10.18;7.65;;;24.00;99.90;;;;;;5001070;28;20077;-83
2023/09/07 09:06:22;;;;;;;9.77;7.75;;;24.10;99.90;;;;;;5000581;28;20034;-83
2023/09/07 09:08:49;;;;;;;9.93;7.55;;;24.20;99.90;;;;;;5017659;28;20051;-84
2023/09/07 09:11:18;;;;;;;11.05;6.95;;;24.30;99.90;;;;;;5000124;28;20050;-84
2023/09/07 09:13:44;;;;;;;7.65;6.82;;;24.30;99.90;;;;;;4999444;28;20041;-84
2023/09/07 09:16:11;;;;;;;7.55;6.85;;;24.50;99.90;;;;;;5019639;28;20053;-83
2023/09/07 09:18:37;;;;;;;7.75;6.93;;;24.60;99.90;;;;;;5016103;28;20507;-83
2023/09/07 09:21:04;;;;;;;7.72;6.82;;;24.70;99.90;;;;;;4997207;28;20050;-84
2023/09/07 09:23:35;;;;;;;7.50;6.53;;;24.80;99.90;;;;;;5000554;28;20133;-85
2023/09/07 09:26:03;;;;;;;7.55;6.40;;;24.90;99.90;;;;;;5020789;28;20053;-84
2023/09/07 09:28:33;;;;;;;7.85;7.03;;;25.00;99.90;;;;;;5002179;28;20037;-84
2023/09/07 09:31:03;;;;;;;7.33;6.33;;;25.00;99.90;;;;;;4988230;28;20539;-84
2023/09/07 09:33:35;;;;;;;7.65;6.88;;;25.10;99.90;;;;;;5019950;28;20469;-84
2023/09/07 09:36:02;;;;;;;8.30;6.80;;;25.20;99.90;;;;;;5021760;28;21670;-86
2023/09/07 09:38:29;;;;;;;8.15;6.63;;;25.20;99.90;;;;;;5001054;28;20037;-83
2023/09/07 09:40:55;;;;;;;6.72;5.78;;;25.30;99.90;;;;;;5007556;28;20077;-83
2023/09/07 09:43:21;;;;;;;7.13;6.43;;;25.40;99.90;;;;;;5009908;28;20127;-84
2023/09/07 09:45:50;;;;;;;12.65;6.55;;;25.50;99.90;;;;;;5019811;28;20056;-84
2023/09/07 09:48:18;;;;;;;7.53;6.72;;;25.60;99.90;;;;;;5022615;28;20046;-84
2023/09/07 09:50:45;;;;;;;9.38;6.70;;;25.70;99.90;;;;;;5011653;28;20033;-84
2023/09/07 09:53:15;;;;;;;6.88;6.18;;;25.70;99.90;;;;;;5013194;28;20120;-84
2023/09/07 09:55:41;;;;;;;8.43;6.32;;;25.80;99.90;;;;;;5011365;28;20120;-84
2023/09/07 09:58:07;;;;;;;6.78;5.90;;;25.90;99.90;;;;;;5029512;28;20593;-84
2023/09/07 10:00:37;;;;;;;8.25;6.05;;;25.90;99.90;;;;;;5013771;28;20049;-84
2023/09/07 10:03:14;;;;;;;7.75;6.65;;;26.00;99.90;;;;;;5021418;28;20044;-83
2023/09/07 10:05:40;;;;;;;7.18;6.47;;;26.10;99.90;;;;;;5012807;28;20545;-83
2023/09/07 10:08:11;;;;;;;8.52;6.20;;;26.20;99.90;;;;;;5013980;28;20045;-84
2023/09/07 10:10:38;;;;;;;6.53;5.93;;;26.20;99.90;;;;;;5013599;28;20428;-83
2023/09/07 10:13:05;;;;;;;6.65;6.00;;;26.40;99.90;;;;;;5020599;28;20621;-83
2023/09/07 10:15:32;;;;;;;7.63;6.15;;;26.40;99.90;;;;;;5001117;28;20125;-86
2023/09/07 10:18:18;;;;;;;6.90;6.20;;;26.50;99.90;;;;;;5019104;28;20167;-84
2023/09/07 10:20:49;;;;;;;8.65;6.20;;;26.60;99.90;;;;;;5000841;28;20505;-84
2023/09/07 10:23:14;;;;;;;8.07;6.23;;;26.70;99.90;;;;;;5023728;28;20051;-83
2023/09/07 10:25:40;;;;;;;8.27;5.88;;;26.70;99.90;;;;;;4988446;28;20050;-84
2023/09/07 10:28:17;;;;;;;6.65;5.80;;;26.80;99.90;;;;;;5025276;28;20049;-84
2023/09/07 10:30:42;;;;;;;6.13;5.20;;;26.90;99.90;;;;;;5008350;28;20071;-84
2023/09/07 10:33:20;;;;;;;5.85;5.35;;;27.00;99.90;;;;;;5007308;28;20138;-84
2023/09/07 10:35:46;;;;;;;7.07;5.13;;;27.10;99.90;;;;;;5009078;28;20382;-83
2023/09/07 10:38:15;;;;;;;5.35;4.85;;;27.10;99.90;;;;;;5022026;28;20042;-84
2023/09/07 10:40:47;;;;;;;7.82;5.22;;;27.20;99.90;;;;;;4981334;28;20503;-84
2023/09/07 10:43:13;;;;;;;5.43;4.93;;;27.30;99.90;;;;;;5030079;28;20037;-84
2023/09/07 10:45:39;;;;;;;6.35;5.07;;;27.40;99.90;;;;;;5013871;28;20052;-84
2023/09/07 10:48:07;;;;;;;5.47;4.75;;;27.40;99.90;;;;;;5014552;28;20056;-87
2023/09/07 10:50:46;;;;;;;7.07;4.68;;;27.40;99.90;;;;;;5016457;28;20037;-83
2023/09/07 10:53:13;;;;;;;7.32;4.90;;;27.50;99.90;;;;;;5044364;28;20038;-84
2023/09/07 10:55:40;;;;;;;7.80;4.78;;;27.50;99.90;;;;;;5016999;28;20481;-84
2023/09/07 10:58:08;;;;;;;4.78;4.22;;;27.60;99.90;;;;;;4996794;28;20588;-83
2023/09/07 11:00:34;;;;;;;5.80;4.25;;;27.70;96.50;;;;;;5008648;28;20037;-84
2023/09/07 11:03:08;;;;;;;5.00;4.18;;;27.80;99.90;;;;;;5033512;28;20124;-86
2023/09/07 11:05:36;;;;;;;5.70;4.53;;;27.80;90.20;;;;;;5024392;28;20041;-84
2023/09/07 11:08:06;;;;;;;4.97;4.13;;;27.90;92.70;;;;;;5033060;28;20041;-84
2023/09/07 11:10:34;;;;;;;4.72;4.22;;;28.00;91.50;;;;;;5013612;28;20107;-83
2023/09/07 11:13:04;;;;;;;7.90;4.03;;;28.10;88.30;;;;;;5034049;28;20038;-83
2023/09/07 11:15:33;;;;;;;5.43;4.57;;;28.20;84.40;;;;;;5014609;28;20405;-85
2023/09/07 11:18:07;;;;;;;5.43;4.22;;;28.20;74.90;;;;;;5004925;28;20128;-83
2023/09/07 11:20:34;;;;;;;4.65;3.90;;;28.20;73.80;;;;;;5015766;28;20045;-84
2023/09/07 11:23:00;;;;;;;6.55;4.43;;;28.20;76.70;;;;;;5026171;28;20509;-84
2023/09/07 11:25:26;;;;;;;6.78;4.65;;;28.30;72.50;;;;;;5015421;28;20100;-85
2023/09/07 11:27:54;;;;;;;6.25;4.10;;;28.30;72.60;;;;;;5015207;28;20037;-83
2023/09/07 11:30:21;;;;;;;6.20;4.72;;;28.40;73.30;;;;;;5014304;28;20048;-85
2023/09/07 11:32:47;;;;;;;6.60;4.32;;;28.40;73.00;;;;;;5014861;28;20034;-84
2023/09/07 11:35:13;;;;;;;7.25;4.47;;;28.50;73.50;;;;;;5014934;28;20430;-84
2023/09/07 11:37:40;;;;;;;5.47;4.30;;;28.50;72.60;;;;;;5014294;28;20072;-84
2023/09/07 11:40:11;;;;;;;8.75;4.50;;;28.60;72.90;;;;;;5014381;28;20130;-84
2023/09/07 11:42:38;;;;;;;4.85;4.35;;;28.60;72.90;;;;;;5030197;28;20120;-85
2023/09/07 11:45:06;;;;;;;6.25;4.18;;;28.70;70.90;;;;;;4976650;28;20034;-83
2023/09/07 11:47:34;;;;;;;5.10;4.20;;;28.70;71.70;;;;;;5014573;28;20440;-84
2023/09/07 11:50:00;;;;;;;5.28;4.57;;;28.70;71.50;;;;;;5015562;28;20496;-87
2023/09/07 11:52:26;;;;;;;4.07;3.78;;;28.70;71.70;;;;;;5012105;28;20042;-84
2023/09/07 11:54:52;;;;;;;4.72;4.20;;;28.80;72.10;;;;;;5025780;28;20143;-84
2023/09/07 11:57:18;;;;;;;5.80;4.35;;;28.80;71.90;;;;;;5013563;28;20073;-84
2023/09/07 11:59:43;;;;;;;5.93;4.60;;;28.90;72.10;;;;;;5033521;28;20033;-86
2023/09/07 12:02:12;;;;;;;5.20;4.50;;;28.90;71.10;;;;;;4986492;28;20034;-85
2023/09/07 12:04:38;;;;;;;7.45;4.80;;;28.90;69.50;;;;;;5015372;28;20076;-83
2023/09/07 12:07:04;;;;;;;4.70;4.30;;;28.90;71.00;;;;;;5013753;28;20096;-83
2023/09/07 12:09:30;;;;;;;5.53;4.55;;;29.00;72.00;;;;;;5008814;28;20151;-85
2023/09/07 12:11:55;;;;;;;6.03;4.60;;;29.00;72.40;;;;;;5015495;28;20132;-84
2023/09/07 12:14:22;;;;;;;5.40;4.55;;;29.00;73.50;;;;;;5014883;28;20488;-83
2023/09/07 12:16:48;;;;;;;7.65;4.53;;;29.00;75.30;;;;;;5015639;28;20045;-85
2023/09/07 12:19:14;;;;;;;5.55;4.97;;;29.10;78.10;;;;;;5011255;28;20050;-84
2023/09/07 12:21:39;;;;;;;7.63;5.30;;;29.20;77.40;;;;;;5031608;28;20504;-85
2023/09/07 12:24:05;;;;;;;5.03;4.53;;;29.10;76.30;;;;;;5015022;28;20401;-84
2023/09/07 12:26:31;;;;;;;4.95;4.55;;;29.20;74.90;;;;;;5014808;28;20057;-84
2023/09/07 12:28:57;;;;;;;5.30;4.78;;;29.20;73.20;;;;;;5015281;28;20045;-84
2023/09/07 12:31:23;;;;;;;5.10;4.60;;;29.30;78.20;;;;;;5014680;28;20068;-84
2023/09/07 12:33:49;;;;;;;4.68;4.28;;;29.40;75.00;;;;;;5014810;28;20148;-84
2023/09/07 12:36:15;;;;;;;8.60;4.80;;;29.40;76.30;;;;;;5014822;28;20038;-84
2023/09/07 12:38:40;;;;;;;6.35;5.03;;;29.50;75.50;;;;;;4997313;28;20151;-84
2023/09/07 12:41:06;;;;;;;5.00;4.50;;;29.50;73.60;;;;;;5029647;28;20037;-84